Time;durP1;ratioP1;P1;durP2;ratioP2;P2;SDS_P1;SDS_P2;PMS_P1;PMS_P2;Temp;Humidity;BMP_temperature;BMP_pressure;BME280_temperature;BME280_humidity;BME280_pressure;Samples;Min_cycle;Max_cycle;Signal;HPM_P1;HPM_P2
2023/03/02 00:02:07;;;;;;;0.00;0.00;;;;;;;4.54;82.82;101310.78;6248578;22;19996;-76
2023/03/02 00:04:39;;;;;;;0.00;0.00;;;;;;;4.62;82.82;101307.91;6265973;22;20022;-78
2023/03/02 00:07:08;;;;;;;0.00;0.00;;;;;;;4.57;82.43;101294.16;6275839;22;20637;-77
2023/03/02 00:09:35;;;;;;;0.00;0.00;;;;;;;4.58;83.21;101301.22;6251111;22;20019;-78
2023/03/02 00:12:02;;;;;;;0.00;0.00;;;;;;;4.41;83.38;101294.50;6275817;22;20003;-77
2023/03/02 00:14:27;;;;;;;0.00;0.00;;;;;;;4.25;83.45;101285.72;6225334;22;20090;-77
2023/03/02 00:16:53;;;;;;;0.00;0.00;;;;;;;4.11;83.78;101294.84;6251410;22;20003;-78
2023/03/02 00:19:18;;;;;;;0.00;0.00;;;;;;;3.95;83.79;101296.00;6223374;22;20090;-77
2023/03/02 00:21:44;;;;;;;0.00;0.00;;;;;;;3.81;84.24;101300.50;6227076;22;20007;-76
2023/03/02 00:24:09;;;;;;;0.00;0.00;;;;;;;3.63;84.47;101299.16;6222442;22;20099;-76
2023/03/02 00:26:36;;;;;;;0.00;0.00;;;;;;;3.49;84.37;101305.53;6225674;22;20065;-76
2023/03/02 00:29:02;;;;;;;0.00;0.00;;;;;;;3.29;84.73;101295.38;6222302;22;20071;-77
2023/03/02 00:31:27;;;;;;;0.00;0.00;;;;;;;3.20;85.17;101293.88;6252207;22;20482;-76
2023/03/02 00:33:59;;;;;;;0.00;0.00;;;;;;;3.10;85.16;101293.38;6227046;22;20071;-76
2023/03/02 00:36:24;;;;;;;0.00;0.00;;;;;;;3.07;85.69;101300.00;6277104;22;20007;-76
2023/03/02 00:38:51;;;;;;;0.00;0.00;;;;;;;3.11;85.69;101298.59;6249770;22;19996;-77
2023/03/02 00:41:17;;;;;;;0.00;0.00;;;;;;;3.09;85.90;101291.69;6274411;22;20007;-77
2023/03/02 00:43:42;;;;;;;0.00;0.00;;;;;;;3.12;85.61;101296.69;6280562;22;20048;-77
2023/03/02 00:46:13;;;;;;;0.00;0.00;;;;;;;3.09;85.97;101297.09;6281708;22;20007;-77
2023/03/02 00:48:39;;;;;;;0.00;0.00;;;;;;;2.98;85.92;101295.78;6304501;22;20481;-76
2023/03/02 00:51:05;;;;;;;0.05;0.05;;;;;;;2.91;86.08;101294.88;6281471;22;20034;-76
2023/03/02 00:53:32;;;;;;;0.00;0.00;;;;;;;2.83;86.58;101287.72;6280314;22;20086;-75
2023/03/02 00:55:57;;;;;;;0.00;0.00;;;;;;;2.75;86.22;101293.25;6282569;22;19999;-76
2023/03/02 00:58:24;;;;;;;0.00;0.00;;;;;;;2.65;86.83;101290.06;6254435;22;20007;-76
2023/03/02 01:00:49;;;;;;;0.10;0.10;;;;;;;2.74;86.42;101292.41;6257605;22;20010;-76
2023/03/02 01:03:15;;;;;;;0.00;0.00;;;;;;;2.84;86.59;101294.78;6256805;22;20079;-76
2023/03/02 01:05:40;;;;;;;0.00;0.00;;;;;;;3.00;86.78;101303.69;6277961;22;20007;-76
2023/03/02 01:08:06;;;;;;;0.00;0.00;;;;;;;3.13;86.14;101301.09;6283105;22;20011;-77
2023/03/02 01:10:32;;;;;;;0.00;0.00;;;;;;;3.13;86.41;101304.63;6250609;22;20007;-76
2023/03/02 01:12:58;;;;;;;0.00;0.00;;;;;;;3.07;86.59;101307.28;6308657;22;19999;-77
2023/03/02 01:15:24;;;;;;;0.00;0.00;;;;;;;2.96;86.75;101295.09;6276636;22;20120;-76
2023/03/02 01:17:50;;;;;;;0.00;0.00;;;;;;;3.03;86.42;101300.59;6256098;22;19996;-76
2023/03/02 01:20:16;;;;;;;0.00;0.00;;;;;;;3.13;86.47;101292.97;6280770;22;20002;-76
2023/03/02 01:22:43;;;;;;;0.00;0.00;;;;;;;3.22;86.60;101280.16;6303337;22;19999;-77
2023/03/02 01:25:10;;;;;;;0.00;0.00;;;;;;;3.46;86.04;101286.97;6307618;22;20006;-75
2023/03/02 01:27:36;;;;;;;0.00;0.00;;;;;;;3.73;85.70;101300.69;6276066;22;20019;-74
2023/03/02 01:30:02;;;;;;;0.00;0.00;;;;;;;3.84;86.16;101284.72;6280743;22;20374;-76
2023/03/02 01:32:28;;;;;;;0.00;0.00;;;;;;;3.88;85.18;101274.31;6250775;22;20011;-76
2023/03/02 01:34:54;;;;;;;0.00;0.00;;;;;;;4.13;85.28;101298.16;6308681;22;20006;-76
2023/03/02 01:37:21;;;;;;;0.00;0.00;;;;;;;4.08;85.62;101289.81;6280935;22;20056;-77
2023/03/02 01:39:47;;;;;;;0.00;0.00;;;;;;;4.11;85.30;101292.13;6308965;22;20307;-78
2023/03/02 01:42:13;;;;;;;0.00;0.00;;;;;;;4.06;85.83;101281.06;6256713;22;20100;-76
2023/03/02 01:44:42;;;;;;;0.00;0.00;;;;;;;4.06;85.52;101286.47;6281268;22;19991;-76
2023/03/02 01:47:15;;;;;;;0.00;0.00;;;;;;;4.14;85.20;101289.00;6310256;22;20068;-77
2023/03/02 01:49:46;;;;;;;0.10;0.10;;;;;;;4.23;85.71;101290.50;6308534;22;20058;-75
2023/03/02 01:52:12;;;;;;;0.10;0.10;;;;;;;4.32;85.39;101285.72;6283439;22;20018;-77
2023/03/02 01:54:41;;;;;;;0.00;0.00;;;;;;;4.37;85.31;101284.09;6285094;22;20003;-76
2023/03/02 01:57:08;;;;;;;0.10;0.10;;;;;;;4.43;85.67;101282.44;6305192;22;20086;-76
2023/03/02 01:59:37;;;;;;;0.00;0.00;;;;;;;4.44;85.62;101281.41;6281223;22;20317;-77
2023/03/02 02:02:07;;;;;;;0.00;0.00;;;;;;;4.37;85.38;101278.66;6305531;22;20003;-75
2023/03/02 02:04:37;;;;;;;0.10;0.10;;;;;;;4.30;84.76;101283.22;6308850;22;20078;-77
2023/03/02 02:07:09;;;;;;;0.00;0.00;;;;;;;4.12;84.81;101280.28;6308485;22;20010;-75
2023/03/02 02:09:39;;;;;;;0.00;0.00;;;;;;;3.89;85.53;101270.56;6310200;22;20426;-76
2023/03/02 02:12:05;;;;;;;0.00;0.00;;;;;;;3.71;85.96;101262.16;6306277;22;20014;-77
2023/03/02 02:14:30;;;;;;;0.00;0.00;;;;;;;3.67;86.16;101267.13;6288519;22;20054;-76
2023/03/02 02:16:56;;;;;;;0.00;0.00;;;;;;;3.76;86.68;101265.94;6260287;22;20003;-76
2023/03/02 02:19:40;;;;;;;0.00;0.00;;;;;;;3.86;86.63;101259.34;6313169;22;20006;-76
2023/03/02 02:22:08;;;;;;;0.00;0.00;;;;;;;3.89;86.58;101259.75;6308263;22;19995;-76
2023/03/02 02:24:45;;;;;;;0.00;0.00;;;;;;;3.87;86.31;101261.84;6312626;22;20029;-77
2023/03/02 02:27:11;;;;;;;0.10;0.10;;;;;;;3.72;86.17;101263.81;6280147;22;20009;-75
2023/03/02 02:29:44;;;;;;;0.00;0.00;;;;;;;3.64;85.86;101262.13;6282933;22;20011;-76
2023/03/02 02:32:25;;;;;;;0.00;0.00;;;;;;;3.57;86.40;101262.06;6307891;22;19998;-76
2023/03/02 02:34:54;;;;;;;0.00;0.00;;;;;;;3.50;86.30;101263.91;6282191;22;20047;-76
2023/03/02 02:37:34;;;;;;;0.00;0.00;;;;;;;3.55;86.19;101258.75;6283731;22;19999;-75
2023/03/02 02:40:07;;;;;;;0.00;0.00;;;;;;;3.53;86.23;101271.63;6284138;22;20003;-76
2023/03/02 02:42:37;;;;;;;0.00;0.00;;;;;;;3.49;86.66;101271.19;6306878;22;20026;-76
2023/03/02 02:45:17;;;;;;;0.00;0.00;;;;;;;3.35;86.28;101260.50;6308438;22;20082;-75
2023/03/02 02:47:42;;;;;;;0.00;0.00;;;;;;;3.28;86.10;101269.38;6281968;22;20002;-74
2023/03/02 02:50:17;;;;;;;0.00;0.00;;;;;;;3.23;86.70;101261.03;6253100;22;20003;-75
2023/03/02 02:52:46;;;;;;;0.00;0.00;;;;;;;3.29;86.20;101275.63;6307178;22;19999;-76
2023/03/02 02:55:27;;;;;;;0.10;0.10;;;;;;;3.28;86.31;101266.66;6304422;22;20033;-76
2023/03/02 02:57:56;;;;;;;0.00;0.00;;;;;;;3.29;86.46;101257.53;6309657;22;20003;-75
2023/03/02 03:00:22;;;;;;;0.00;0.00;;;;;;;3.41;85.98;101263.22;6306682;22;20046;-75
2023/03/02 03:02:54;;;;;;;0.00;0.00;;;;;;;3.38;86.59;101247.41;6309150;22;20325;-76
2023/03/02 03:05:22;;;;;;;0.00;0.00;;;;;;;3.45;86.02;101263.69;6303772;22;20816;-76
2023/03/02 03:07:48;;;;;;;0.00;0.00;;;;;;;3.37;86.22;101266.53;6310024;22;19999;-76
2023/03/02 03:10:33;;;;;;;0.00;0.00;;;;;;;3.41;86.44;101267.81;6253017;22;20009;-77
2023/03/02 03:12:59;;;;;;;0.00;0.00;;;;;;;3.42;85.79;101264.09;6283735;22;20060;-76
2023/03/02 03:15:25;;;;;;;0.00;0.00;;;;;;;3.44;86.29;101268.22;6254599;22;20007;-77
2023/03/02 03:18:00;;;;;;;0.00;0.00;;;;;;;3.43;86.01;101265.72;6234213;22;20003;-76
2023/03/02 03:20:27;;;;;;;0.00;0.00;;;;;;;3.46;86.09;101268.03;6307937;22;19999;-77
2023/03/02 03:22:53;;;;;;;0.00;0.00;;;;;;;3.46;86.28;101266.19;6309638;22;20007;-76
2023/03/02 03:25:24;;;;;;;0.00;0.00;;;;;;;3.36;85.81;101259.44;6280430;22;20038;-76
2023/03/02 03:27:49;;;;;;;0.00;0.00;;;;;;;3.32;86.06;101259.84;6306426;22;19999;-77
2023/03/02 03:30:15;;;;;;;0.00;0.00;;;;;;;3.18;85.83;101257.25;6313512;22;20327;-77
2023/03/02 03:32:41;;;;;;;0.00;0.00;;;;;;;2.95;86.13;101251.06;6278035;22;20018;-76
2023/03/02 03:35:10;;;;;;;0.00;0.00;;;;;;;2.84;86.23;101256.97;6309188;22;20003;-76
2023/03/02 03:37:39;;;;;;;0.00;0.00;;;;;;;2.81;87.00;101257.38;6307451;22;20003;-77
2023/03/02 03:40:06;;;;;;;0.00;0.00;;;;;;;2.71;87.15;101263.09;6282847;22;20003;-77
2023/03/02 03:42:32;;;;;;;0.00;0.00;;;;;;;2.58;86.83;101269.19;6305709;22;20337;-75
2023/03/02 03:44:58;;;;;;;0.10;0.10;;;;;;;2.44;87.39;101254.72;6307056;22;20027;-76
2023/03/02 03:47:23;;;;;;;0.00;0.00;;;;;;;2.23;87.15;101239.38;6228643;22;20426;-77
2023/03/02 03:49:49;;;;;;;0.00;0.00;;;;;;;2.18;87.45;101254.47;6283913;22;20029;-77
2023/03/02 03:52:22;;;;;;;0.00;0.00;;;;;;;2.09;87.66;101262.66;6254966;22;19999;-77
2023/03/02 03:54:55;;;;;;;0.00;0.00;;;;;;;1.92;88.20;101253.91;6262833;22;20007;-76
2023/03/02 03:57:39;;;;;;;0.00;0.00;;;;;;;1.56;88.50;101222.38;6280264;22;20026;-76
2023/03/02 04:00:11;;;;;;;0.10;0.10;;;;;;;1.65;88.21;101257.31;6284584;22;20083;-76
2023/03/02 04:02:37;;;;;;;0.00;0.00;;;;;;;1.48;88.62;101257.50;6308190;22;20041;-76
2023/03/02 04:05:06;;;;;;;0.00;0.00;;;;;;;1.45;88.86;101263.25;6283607;22;20003;-76
2023/03/02 04:07:32;;;;;;;0.10;0.10;;;;;;;1.35;89.03;101262.69;6280316;22;20060;-75
2023/03/02 04:10:03;;;;;;;0.00;0.00;;;;;;;1.21;89.02;101257.13;6284274;22;20011;-75
2023/03/02 04:12:34;;;;;;;0.00;0.00;;;;;;;1.18;89.48;101272.78;6284322;22;20014;-76
2023/03/02 04:14:59;;;;;;;0.00;0.00;;;;;;;1.08;89.37;101275.75;6305936;22;20014;-76
2023/03/02 04:17:25;;;;;;;0.00;0.00;;;;;;;1.02;89.99;101273.78;6282152;22;20027;-75
2023/03/02 04:19:51;;;;;;;0.00;0.00;;;;;;;0.96;89.69;101269.13;6305744;22;20092;-76
2023/03/02 04:22:18;;;;;;;0.00;0.00;;;;;;;1.01;89.87;101272.13;6280481;22;20034;-75
2023/03/02 04:24:47;;;;;;;0.00;0.00;;;;;;;1.09;89.65;101281.97;6302707;22;19999;-76
2023/03/02 04:27:13;;;;;;;0.00;0.00;;;;;;;1.12;89.35;101279.75;6278207;22;20007;-75
2023/03/02 04:29:40;;;;;;;0.10;0.10;;;;;;;1.16;89.14;101286.44;6305843;22;20000;-76
2023/03/02 04:32:06;;;;;;;0.10;0.10;;;;;;;1.19;88.54;101278.00;6286138;22;20080;-76
2023/03/02 04:34:32;;;;;;;0.00;0.00;;;;;;;1.20;88.88;101281.53;6262846;22;20011;-76
2023/03/02 04:36:58;;;;;;;0.00;0.00;;;;;;;1.32;88.66;101274.69;6281793;22;20033;-76
2023/03/02 04:39:24;;;;;;;0.00;0.00;;;;;;;1.41;87.96;101274.59;6311365;22;20045;-76
2023/03/02 04:41:50;;;;;;;0.00;0.00;;;;;;;1.53;87.97;101276.66;6279722;22;20438;-76
2023/03/02 04:44:16;;;;;;;0.10;0.10;;;;;;;1.65;87.33;101278.88;6312343;22;19995;-77
2023/03/02 04:46:43;;;;;;;0.00;0.00;;;;;;;1.65;86.69;101268.09;6282258;22;19999;-76
2023/03/02 04:49:08;;;;;;;0.00;0.00;;;;;;;1.75;86.83;101276.72;6282647;22;20019;-76
2023/03/02 04:51:37;;;;;;;0.00;0.00;;;;;;;1.83;86.08;101267.72;6310170;22;20050;-76
2023/03/02 04:54:07;;;;;;;0.00;0.00;;;;;;;2.01;85.66;101272.72;6307288;22;20007;-77
2023/03/02 04:56:32;;;;;;;0.00;0.00;;;;;;;2.21;85.19;101283.75;6310121;22;20077;-75
2023/03/02 04:58:58;;;;;;;0.00;0.00;;;;;;;2.36;84.54;101278.31;6256562;22;20014;-76
2023/03/02 05:01:24;;;;;;;0.10;0.10;;;;;;;2.55;83.90;101293.06;6257049;22;20487;-77
2023/03/02 05:03:49;;;;;;;0.00;0.00;;;;;;;2.60;83.60;101272.56;6257814;22;20421;-76
2023/03/02 05:06:15;;;;;;;0.00;0.00;;;;;;;2.76;82.66;101276.00;6284483;22;20068;-77
2023/03/02 05:08:42;;;;;;;0.10;0.10;;;;;;;2.83;81.92;101276.91;6284125;22;20422;-76
2023/03/02 05:11:07;;;;;;;0.00;0.00;;;;;;;2.89;82.12;101269.91;6285914;22;20003;-75
2023/03/02 05:13:34;;;;;;;0.10;0.10;;;;;;;2.90;81.34;101272.41;6287932;22;19983;-77
2023/03/02 05:16:00;;;;;;;0.00;0.00;;;;;;;2.89;81.31;101276.16;6283686;22;19995;-76
2023/03/02 05:18:26;;;;;;;0.10;0.10;;;;;;;2.92;81.14;101274.91;6259617;22;20002;-76
2023/03/02 05:20:52;;;;;;;0.00;0.00;;;;;;;2.93;79.77;101276.59;6310010;22;19996;-77
2023/03/02 05:23:27;;;;;;;0.10;0.10;;;;;;;2.88;78.51;101263.66;6282119;22;20003;-76
2023/03/02 05:25:54;;;;;;;0.00;0.00;;;;;;;2.87;78.15;101269.25;6230429;22;20034;-75
2023/03/02 05:28:22;;;;;;;0.10;0.10;;;;;;;2.87;78.36;101267.38;6282515;22;20030;-76
2023/03/02 05:30:48;;;;;;;0.10;0.10;;;;;;;2.81;78.07;101268.16;6308252;22;20084;-77
2023/03/02 05:33:15;;;;;;;0.00;0.00;;;;;;;2.82;77.69;101272.56;6282089;22;20026;-76
2023/03/02 05:35:41;;;;;;;0.00;0.00;;;;;;;2.73;78.27;101260.19;6283250;22;20014;-76
2023/03/02 05:38:07;;;;;;;0.00;0.00;;;;;;;2.67;77.90;101256.41;6257765;22;20010;-78
2023/03/02 05:40:34;;;;;;;0.10;0.10;;;;;;;2.68;78.15;101258.06;6307300;22;20003;-76
2023/03/02 05:43:04;;;;;;;0.10;0.10;;;;;;;2.71;78.01;101273.06;6310429;22;20117;-77
2023/03/02 05:45:43;;;;;;;0.00;0.00;;;;;;;2.54;78.12;101267.94;6307549;22;19999;-78
2023/03/02 05:48:19;;;;;;;0.00;0.00;;;;;;;2.50;77.59;101271.19;6308524;22;20451;-78
2023/03/02 05:50:55;;;;;;;;;;;;;;;;;;;;;
2023/03/02 05:53:24;;;;;;;0.00;0.00;;;;;;;2.06;79.21;101262.22;6263591;22;20026;-79
2023/03/02 05:55:50;;;;;;;0.05;0.05;;;;;;;1.95;79.27;101260.81;6255287;22;20011;-77
2023/03/02 05:58:17;;;;;;;0.00;0.00;;;;;;;1.94;79.67;101266.41;6311090;22;20027;-77
2023/03/02 06:01:02;;;;;;;0.00;0.00;;;;;;;1.80;80.60;101255.44;6280385;22;20656;-77
2023/03/02 06:03:28;;;;;;;0.00;0.00;;;;;;;1.84;80.42;101267.53;6260131;22;20013;-77
2023/03/02 06:05:58;;;;;;;0.00;0.00;;;;;;;1.81;81.33;101261.66;6280730;22;20026;-75
2023/03/02 06:08:31;;;;;;;0.00;0.00;;;;;;;1.78;81.32;101262.03;6258381;22;20011;-77
2023/03/02 06:10:57;;;;;;;0.00;0.00;;;;;;;1.65;81.33;101251.91;6279631;22;20090;-77
2023/03/02 06:13:38;;;;;;;0.00;0.00;;;;;;;1.55;81.85;101247.66;6309658;22;20751;-78
2023/03/02 06:16:07;;;;;;;0.00;0.00;;;;;;;1.39;81.90;101248.66;6280136;22;20003;-77
2023/03/02 06:18:33;;;;;;;0.00;0.00;;;;;;;1.36;82.83;101269.78;6284391;22;20010;-76
2023/03/02 06:20:59;;;;;;;0.00;0.00;;;;;;;1.17;83.75;101250.41;6279712;22;20011;-77
2023/03/02 06:23:27;;;;;;;0.00;0.00;;;;;;;1.17;84.23;101265.75;6312354;22;20014;-77
2023/03/02 06:25:52;;;;;;;0.00;0.00;;;;;;;0.96;84.53;101255.66;6281697;22;20007;-76
2023/03/02 06:28:19;;;;;;;0.00;0.00;;;;;;;0.80;85.12;101249.38;6260784;22;20016;-77
2023/03/02 06:30:47;;;;;;;0.05;0.05;;;;;;;0.78;85.66;101272.97;6313049;22;20078;-78
2023/03/02 06:33:20;;;;;;;0.10;0.10;;;;;;;0.58;86.27;101247.56;6285524;22;19995;-75
2023/03/02 06:35:56;;;;;;;0.00;0.00;;;;;;;0.52;86.53;101258.00;6286123;22;20037;-76
2023/03/02 06:38:21;;;;;;;0.10;0.10;;;;;;;0.49;86.60;101252.16;6255655;22;20003;-77
2023/03/02 06:40:49;;;;;;;0.00;0.00;;;;;;;0.62;86.80;101273.94;6286524;22;19979;-78
2023/03/02 06:43:15;;;;;;;0.00;0.00;;;;;;;0.56;86.88;101263.06;6285966;22;20023;-76
2023/03/02 06:45:40;;;;;;;0.00;0.00;;;;;;;0.61;87.52;101271.41;6309605;22;20104;-76
2023/03/02 06:48:08;;;;;;;0.00;0.00;;;;;;;0.47;87.49;101248.81;6261282;22;20011;-77
2023/03/02 06:50:34;;;;;;;0.10;0.10;;;;;;;0.45;87.69;101262.47;6279687;22;20049;-78
2023/03/02 06:53:07;;;;;;;0.00;0.00;;;;;;;0.16;88.08;101237.06;6261299;22;20011;-77
2023/03/02 06:55:40;;;;;;;0.00;0.00;;;;;;;0.23;88.20;101253.34;6308441;22;20003;-78
2023/03/02 06:58:13;;;;;;;0.10;0.10;;;;;;;0.21;88.48;101254.53;6286185;22;20706;-76
2023/03/02 07:00:39;;;;;;;0.10;0.10;;;;;;;0.26;88.18;101265.59;6230892;22;20003;-77
2023/03/02 07:03:04;;;;;;;0.00;0.00;;;;;;;0.21;87.95;101254.53;6311395;22;20485;-78
2023/03/02 07:05:31;;;;;;;0.00;0.00;;;;;;;0.30;88.01;101272.31;6308287;22;20002;-77
2023/03/02 07:07:59;;;;;;;0.00;0.00;;;;;;;0.34;87.84;101277.16;6289162;22;20017;-78
2023/03/02 07:10:25;;;;;;;0.00;0.00;;;;;;;0.36;87.85;101279.66;6286298;22;20052;-77
2023/03/02 07:13:00;;;;;;;0.00;0.00;;;;;;;0.31;87.90;101265.91;6282217;22;20344;-78
2023/03/02 07:15:25;;;;;;;0.00;0.00;;;;;;;0.33;87.93;101267.38;6287859;22;20044;-78
2023/03/02 07:17:51;;;;;;;0.00;0.00;;;;;;;0.40;87.70;101275.59;6282957;22;20011;-78
2023/03/02 07:20:17;;;;;;;0.00;0.00;;;;;;;0.45;87.65;101267.84;6284520;22;20003;-78
2023/03/02 07:22:45;;;;;;;0.10;0.10;;;;;;;0.57;87.76;101275.47;6258151;22;20018;-78
2023/03/02 07:25:11;;;;;;;0.00;0.00;;;;;;;0.69;87.71;101280.28;6286529;22;20003;-78
2023/03/02 07:27:37;;;;;;;0.00;0.00;;;;;;;0.92;87.20;101276.75;6282476;22;20446;-79
2023/03/02 07:30:06;;;;;;;0.10;0.10;;;;;;;1.29;86.28;101258.06;6286293;22;20098;-78
2023/03/02 07:32:44;;;;;;;0.00;0.00;;;;;;;1.68;85.63;101267.72;6285776;22;20049;-77
2023/03/02 07:35:17;;;;;;;0.00;0.00;;;;;;;1.82;84.92;101258.78;6260118;22;20086;-79
2023/03/02 07:37:51;;;;;;;0.00;0.00;;;;;;;1.96;84.12;101272.44;6313554;22;20007;-78
2023/03/02 07:40:19;;;;;;;0.00;0.00;;;;;;;1.84;83.98;101258.59;6283619;22;20006;-79
2023/03/02 07:42:45;;;;;;;0.00;0.00;;;;;;;1.88;83.69;101262.59;6287661;22;20036;-80
2023/03/02 07:45:20;;;;;;;0.00;0.00;;;;;;;2.00;83.04;101271.03;6285601;22;20484;-79
2023/03/02 07:47:48;;;;;;;0.00;0.00;;;;;;;2.35;82.73;101276.63;6267852;22;20022;-77
2023/03/02 07:50:14;;;;;;;0.10;0.10;;;;;;;2.81;82.75;101257.38;6241090;22;19995;-81
2023/03/02 07:52:46;;;;;;;0.00;0.00;;;;;;;3.60;80.27;101267.09;6264103;22;20016;-80
2023/03/02 07:55:14;;;;;;;0.00;0.00;;;;;;;4.58;76.88;101274.13;6261123;22;20021;-80
2023/03/02 07:57:40;;;;;;;0.00;0.00;;;;;;;5.30;72.95;101265.41;6260161;22;20015;-81
2023/03/02 08:00:06;;;;;;;0.00;0.00;;;;;;;6.16;70.81;101268.97;6261327;22;20011;-83
2023/03/02 08:02:32;;;;;;;0.00;0.00;;;;;;;6.97;67.02;101270.13;6257464;22;20011;-79
2023/03/02 08:05:18;;;;;;;0.00;0.00;;;;;;;7.86;63.79;101278.91;6259858;22;20018;-79
2023/03/02 08:07:53;;;;;;;0.00;0.00;;;;;;;8.73;61.94;101285.13;6257653;22;20011;-79
2023/03/02 08:10:18;;;;;;;0.00;0.00;;;;;;;9.67;58.61;101292.59;6287152;22;20003;-80
2023/03/02 08:12:44;;;;;;;0.00;0.00;;;;;;;10.46;56.27;101277.59;6256761;22;20442;-80
2023/03/02 08:15:22;;;;;;;0.00;0.00;;;;;;;11.02;53.93;101271.47;6261325;22;20609;-80
2023/03/02 08:17:55;;;;;;;0.00;0.00;;;;;;;11.60;52.51;101275.63;6284627;22;20082;-80
2023/03/02 08:20:20;;;;;;;0.00;0.00;;;;;;;12.37;50.40;101290.34;6314600;22;19983;-80
2023/03/02 08:22:53;;;;;;;0.00;0.00;;;;;;;13.10;48.81;101292.72;6286035;22;20014;-79
2023/03/02 08:25:22;;;;;;;0.00;0.00;;;;;;;13.49;47.13;101282.59;6260178;22;19987;-80
2023/03/02 08:27:47;;;;;;;0.00;0.00;;;;;;;13.89;45.87;101282.00;6258107;22;20008;-80
2023/03/02 08:30:17;;;;;;;0.00;0.00;;;;;;;14.29;45.13;101296.19;6285927;22;20094;-80
2023/03/02 08:32:52;;;;;;;0.00;0.00;;;;;;;14.62;44.01;101291.38;6282014;22;20014;-80
2023/03/02 08:35:20;;;;;;;0.00;0.00;;;;;;;15.24;42.37;101269.38;6282480;22;20011;-80
2023/03/02 08:41:30;;;;;;;;;;;;;;;;;;;;;
2023/03/02 08:43:56;;;;;;;0.00;0.00;;;;;;;16.89;38.49;101288.91;6312821;22;20125;-80
2023/03/02 08:46:51;;;;;;;;;;;;;;;;;;;;;
2023/03/02 08:49:18;;;;;;;0.00;0.00;;;;;;;17.51;36.92;101277.28;6307015;22;20010;-80
2023/03/02 08:51:45;;;;;;;0.00;0.00;;;;;;;17.69;36.06;101295.09;6282369;22;20010;-76
2023/03/02 08:54:18;;;;;;;0.00;0.00;;;;;;;17.81;36.45;101298.28;6256761;22;20003;-80
2023/03/02 08:56:44;;;;;;;0.00;0.00;;;;;;;17.66;35.44;101282.69;6310893;22;20027;-79
2023/03/02 08:59:12;;;;;;;0.00;0.00;;;;;;;17.24;36.20;101296.09;6306268;22;20269;-78
2023/03/02 09:01:44;;;;;;;0.00;0.00;;;;;;;17.14;36.35;101296.16;6282179;22;20022;-78
2023/03/02 09:04:13;;;;;;;0.00;0.00;;;;;;;17.35;35.72;101302.34;6282384;22;20008;-79
2023/03/02 09:06:46;;;;;;;0.00;0.00;;;;;;;18.22;35.92;101300.56;6285282;22;20094;-80
2023/03/02 09:10:04;;;;;;;0.00;0.00;;;;;;;19.00;33.49;101280.94;6281576;22;20007;-81
2023/03/02 09:12:38;;;;;;;0.00;0.00;;;;;;;20.42;31.61;101308.22;6308030;22;20007;-79
2023/03/02 09:15:07;;;;;;;0.00;0.00;;;;;;;21.26;30.68;101315.19;6311258;22;20011;-80
2023/03/02 09:17:34;;;;;;;0.00;0.00;;;;;;;21.54;29.81;101311.47;6256214;22;20033;-80
2023/03/02 09:20:00;;;;;;;0.00;0.00;;;;;;;22.08;29.44;101314.97;6285177;22;20041;-80
2023/03/02 09:22:25;;;;;;;0.00;0.00;;;;;;;22.80;28.42;101304.44;6308316;22;20370;-79
2023/03/02 09:24:51;;;;;;;0.00;0.00;;;;;;;23.13;26.67;101292.81;6283155;22;20434;-79
2023/03/02 09:27:16;;;;;;;0.00;0.00;;;;;;;23.32;27.08;101283.25;6259438;22;20015;-79
2023/03/02 09:29:44;;;;;;;0.00;0.00;;;;;;;24.43;25.93;101295.41;6255411;22;19999;-79
2023/03/02 09:32:14;;;;;;;0.00;0.00;;;;;;;21.89;27.52;101297.66;6257743;22;20004;-80
2023/03/02 09:34:50;;;;;;;;;;;;;;;;;;;;;
2023/03/02 09:37:31;;;;;;;0.00;0.00;;;;;;;17.05;32.85;101297.91;6311602;22;20049;-79
2023/03/02 09:39:56;;;;;;;0.00;0.00;;;;;;;15.66;35.30;101293.03;6283172;22;20003;-79
2023/03/02 09:43:01;;;;;;;0.00;0.00;;;;;;;14.84;37.34;101297.47;6281425;22;20153;-79
2023/03/02 09:45:38;;;;;;;0.00;0.00;;;;;;;13.43;39.27;101289.97;6186988;23;20008;-77
2023/03/02 09:48:23;;;;;;;0.00;0.00;;;;;;;13.22;40.92;101299.97;6276709;22;20440;-79
2023/03/02 09:51:04;;;;;;;;;;;;;;;12.82;41.77;101306.72;6282253;22;20114;-79
2023/03/02 09:57:36;;;;;;;0.00;0.00;;;;;;;14.94;41.61;101312.34;6244744;22;20027;-76
2023/03/02 10:00:05;;;;;;;;;;;;;;;19.96;33.66;101301.72;6247405;22;20003;-76
2023/03/02 10:02:39;;;;;;;0.00;0.00;;;;;;;24.29;27.84;101314.41;6304510;22;20310;-77
2023/03/02 10:05:15;;;;;;;;;;;;;;;27.48;24.16;101317.91;6282378;22;20003;-77
2023/03/02 10:07:43;;;;;;;0.00;0.00;;;;;;;29.51;21.94;101317.66;6280575;22;19977;-76
2023/03/02 10:10:25;;;;;;;0.00;0.00;;;;;;;27.47;22.00;101315.47;6286040;22;20003;-75
2023/03/02 10:13:15;;;;;;;0.00;0.00;;;;;;;28.11;21.54;101321.94;6307918;22;20010;-77
2023/03/02 10:16:00;;;;;;;0.00;0.00;;;;;;;29.88;19.50;101305.84;6307790;22;20003;-78
2023/03/02 10:18:30;;;;;;;0.00;0.00;;;;;;;28.12;20.05;101322.72;6283555;22;19999;-77
2023/03/02 10:21:05;;;;;;;0.00;0.00;;;;;;;26.62;20.74;101316.22;6279375;22;20003;-78
2023/03/02 10:23:56;;;;;;;0.00;0.00;;;;;;;24.08;23.07;101312.38;6309322;22;20003;-78
2023/03/02 10:26:26;;;;;;;0.00;0.00;;;;;;;22.51;24.87;101309.84;6305083;22;20003;-75
2023/03/02 10:29:30;;;;;;;0.00;0.00;;;;;;;20.34;27.15;101303.41;6281790;22;20103;-75
2023/03/02 10:32:03;;;;;;;0.00;0.00;;;;;;;19.02;28.67;101304.44;6275393;22;20067;-73
2023/03/02 10:34:29;;;;;;;0.00;0.00;;;;;;;17.71;30.69;101310.28;6277968;22;20294;-75
2023/03/02 10:36:56;;;;;;;0.00;0.00;;;;;;;17.90;31.35;101302.09;6254835;22;20046;-76
2023/03/02 10:39:25;;;;;;;0.00;0.00;;;;;;;17.38;31.88;101303.72;6308763;22;20011;-80
2023/03/02 10:42:06;;;;;;;0.00;0.00;;;;;;;18.11;31.19;101310.97;6279112;22;20117;-77
2023/03/02 10:44:44;;;;;;;0.00;0.00;;;;;;;17.74;31.59;101304.19;6281299;22;20010;-76
2023/03/02 10:47:30;;;;;;;0.00;0.00;;;;;;;19.04;31.46;101301.41;6306967;22;20003;-76
2023/03/02 10:49:58;;;;;;;0.00;0.00;;;;;;;20.40;28.35;101296.63;6283195;22;20332;-75
2023/03/02 10:52:29;;;;;;;0.00;0.00;;;;;;;20.34;27.78;101292.28;6253463;22;20011;-77
2023/03/02 10:55:12;;;;;;;0.00;0.00;;;;;;;19.22;29.00;101294.16;6285831;22;19999;-76
2023/03/02 10:57:43;;;;;;;0.00;0.00;;;;;;;19.69;29.79;101297.72;6283481;22;20011;-77
2023/03/02 11:00:35;;;;;;;0.00;0.00;;;;;;;26.15;23.82;101302.72;6283150;22;19992;-77
2023/03/02 11:03:17;;;;;;;0.00;0.00;;;;;;;31.73;18.94;101324.78;6280005;22;20064;-77
2023/03/02 11:05:44;;;;;;;0.00;0.00;;;;;;;35.48;16.58;101309.03;6276737;22;20430;-77
2023/03/02 11:08:16;;;;;;;0.00;0.00;;;;;;;38.21;13.72;101314.53;6307682;22;20017;-77
2023/03/02 11:11:02;;;;;;;0.00;0.00;;;;;;;39.69;12.91;101317.88;6276317;22;19999;-76
2023/03/02 11:13:53;;;;;;;0.00;0.00;;;;;;;39.04;11.90;101313.63;6284366;22;20007;-75
2023/03/02 11:16:19;;;;;;;0.00;0.00;;;;;;;35.15;12.65;101310.44;6275435;22;20062;-80
2023/03/02 11:18:44;;;;;;;0.00;0.00;;;;;;;30.65;16.62;101312.25;6282709;22;20011;-77
2023/03/02 11:21:17;;;;;;;0.00;0.00;;;;;;;31.73;16.19;101290.84;6281003;22;20006;-77
2023/03/02 11:24:14;;;;;;;0.00;0.00;;;;;;;30.39;17.07;101310.25;6284960;22;19987;-76
2023/03/02 11:26:54;;;;;;;0.00;0.00;;;;;;;27.22;18.35;101304.34;6289818;22;20232;-77
2023/03/02 11:29:29;;;;;;;0.00;0.00;;;;;;;25.03;20.91;101300.88;6281696;22;19995;-76
2023/03/02 11:32:09;;;;;;;0.00;0.00;;;;;;;25.19;21.22;101289.84;6309434;22;20003;-76
2023/03/02 11:34:59;;;;;;;0.00;0.00;;;;;;;28.41;18.70;101289.66;6279465;22;19999;-76
2023/03/02 11:37:45;;;;;;;0.00;0.00;;;;;;;28.73;17.45;101296.81;6282492;22;19999;-75
2023/03/02 11:40:52;;;;;;;0.00;0.00;;;;;;;25.26;19.46;101276.94;6279897;22;20333;-75
2023/03/02 11:43:18;;;;;;;0.00;0.00;;;;;;;26.89;20.28;101276.53;6235368;22;20338;-75
2023/03/02 11:45:47;;;;;;;0.00;0.00;;;;;;;32.09;16.22;101301.63;6282830;22;20087;-76
2023/03/02 11:48:33;;;;;;;;;;;;;;;;;;;;;
2023/03/02 11:51:05;;;;;;;0.00;0.00;;;;;;;37.89;12.68;101298.78;6311246;22;20027;-75
2023/03/02 11:53:59;;;;;;;0.00;0.00;;;;;;;39.18;10.58;101295.38;6306628;22;20002;-76
2023/03/02 11:56:39;;;;;;;;;;;;;;;;;;;;;
2023/03/02 11:59:16;;;;;;;0.00;0.00;;;;;;;39.83;10.44;101302.38;6306567;22;20082;-75
2023/03/02 12:01:49;;;;;;;0.00;0.00;;;;;;;38.17;11.50;101300.31;6283365;22;20003;-76
2023/03/02 12:04:33;;;;;;;0.00;0.00;;;;;;;34.74;12.69;101297.63;6305958;22;20022;-77